createdAt,value
2019-04-06T00:00:06.620Z,61.00
2019-04-06T00:02:40.967Z,61.00
2019-04-06T00:05:11.471Z,61.00
2019-04-06T00:07:43.993Z,61.00
2019-04-06T00:10:13.930Z,61.00
2019-04-06T00:12:43.788Z,61.00
2019-04-06T00:15:13.712Z,61.00
2019-04-06T00:17:43.595Z,61.00
2019-04-06T00:20:13.754Z,61.10
2019-04-06T00:22:43.606Z,60.90
2019-04-06T00:25:14.628Z,60.90
2019-04-06T00:27:49.067Z,61.00
2019-04-06T00:30:19.178Z,61.00
2019-04-06T00:32:56.737Z,61.00
2019-04-06T00:35:29.931Z,61.10
2019-04-06T00:37:59.732Z,61.10
2019-04-06T00:40:29.590Z,61.20
2019-04-06T00:42:59.453Z,61.20
2019-04-06T00:45:30.446Z,61.20
2019-04-06T00:48:00.396Z,61.40
2019-04-06T00:50:30.298Z,61.40
2019-04-06T00:53:00.284Z,61.50
2019-04-06T00:55:30.284Z,61.40
2019-04-06T00:58:00.287Z,61.40
2019-04-06T01:00:30.191Z,61.50
2019-04-06T01:03:00.094Z,61.50
2019-04-06T01:05:50.746Z,61.60
2019-04-06T01:08:20.662Z,61.60
2019-04-06T01:10:50.534Z,61.80
2019-04-06T01:13:20.446Z,61.70
2019-04-06T01:15:50.370Z,61.70
2019-04-06T01:18:20.261Z,61.70
2019-04-06T01:20:50.119Z,61.80
2019-04-06T01:23:22.652Z,61.70
2019-04-06T01:25:52.481Z,61.80
2019-04-06T01:28:22.424Z,61.80
2019-04-06T01:30:52.290Z,61.90
2019-04-06T01:33:22.133Z,61.90
2019-04-06T01:39:06.806Z,62.00
2019-04-06T01:41:38.247Z,61.90
2019-04-06T01:44:08.145Z,62.00
2019-04-06T01:46:43.213Z,62.00
2019-04-06T01:49:12.930Z,62.10
2019-04-06T01:51:45.840Z,62.10
2019-04-06T01:54:17.699Z,62.20
2019-04-06T01:56:59.610Z,62.40
2019-04-06T01:59:29.473Z,62.30
2019-04-06T02:02:01.089Z,62.30
2019-04-06T02:04:30.989Z,62.40
2019-04-06T02:07:00.801Z,62.40
2019-04-06T02:09:30.713Z,62.40
2019-04-06T02:12:00.624Z,62.50
2019-04-06T02:14:30.533Z,62.60
2019-04-06T02:17:00.384Z,62.70
2019-04-06T02:19:30.226Z,62.60
2019-04-06T02:22:00.191Z,62.70
2019-04-06T02:24:29.949Z,63.60
2019-04-06T02:30:37.020Z,62.80
2019-04-06T02:33:23.607Z,62.90
2019-04-06T02:35:54.954Z,62.90
2019-04-06T02:38:32.219Z,63.10
2019-04-06T02:41:12.838Z,63.10
2019-04-06T02:43:42.812Z,63.20
2019-04-06T02:46:14.628Z,63.30
2019-04-06T02:48:45.481Z,63.20
2019-04-06T02:51:15.386Z,63.30
2019-04-06T02:53:46.676Z,63.40
2019-04-06T02:56:45.477Z,63.50
2019-04-06T02:59:08.724Z,63.50
2019-04-06T03:01:38.504Z,63.60
2019-04-06T03:04:08.376Z,63.60
2019-04-06T03:06:56.648Z,63.70
2019-04-06T03:09:30.252Z,63.70
2019-04-06T03:12:00.125Z,63.70
2019-04-06T03:14:29.969Z,63.70
2019-04-06T03:17:07.034Z,63.70
2019-04-06T03:19:37.199Z,63.80
2019-04-06T03:22:07.212Z,63.70
2019-04-06T03:24:37.008Z,63.80
2019-04-06T03:27:08.825Z,63.90
2019-04-06T03:29:38.813Z,63.80
2019-04-06T03:32:09.662Z,63.90
2019-04-06T03:34:40.483Z,64.10
2019-04-06T03:37:47.327Z,64.10
2019-04-06T03:40:17.101Z,64.10
2019-04-06T03:42:48.010Z,64.10
2019-04-06T03:45:18.814Z,64.20
2019-04-06T03:47:48.585Z,64.20
2019-04-06T03:50:19.881Z,64.30
2019-04-06T03:52:49.688Z,64.40
2019-04-06T03:55:19.579Z,64.60
2019-04-06T03:57:49.347Z,64.60
2019-04-06T04:00:19.206Z,64.80
2019-04-06T04:02:49.003Z,64.90
2019-04-06T04:05:18.846Z,64.90
2019-04-06T04:07:48.730Z,65.10
2019-04-06T04:10:36.475Z,65.30
2019-04-06T04:13:06.593Z,65.20
2019-04-06T04:15:39.106Z,65.10
2019-04-06T04:18:09.053Z,65.20
2019-04-06T04:20:38.883Z,65.30
2019-04-06T04:23:08.736Z,65.30
2019-04-06T04:25:39.485Z,65.40
2019-04-06T04:28:09.467Z,65.40
2019-04-06T04:30:39.259Z,65.50
2019-04-06T04:33:09.597Z,65.60
2019-04-06T04:35:43.172Z,65.90
2019-04-06T04:38:12.967Z,66.10
2019-04-06T04:40:46.679Z,66.30
2019-04-06T04:43:16.569Z,66.30
2019-04-06T04:45:58.757Z,66.30
2019-04-06T04:48:28.535Z,66.40
2019-04-06T04:50:58.434Z,66.30
2019-04-06T04:53:30.206Z,66.50
2019-04-06T04:56:05.559Z,66.50
2019-04-06T04:58:35.413Z,66.60
2019-04-06T05:01:05.295Z,66.70
2019-04-06T05:03:36.149Z,66.90
2019-04-06T05:06:06.985Z,67.00
2019-04-06T05:08:36.836Z,67.00
2019-04-06T05:11:06.687Z,67.10
2019-04-06T05:13:36.633Z,67.20
2019-04-06T05:16:24.905Z,67.10
2019-04-06T05:18:54.760Z,66.90
2019-04-06T05:21:24.569Z,66.80
2019-04-06T05:23:56.570Z,66.90
2019-04-06T05:26:36.602Z,66.90
2019-04-06T05:28:57.813Z,67.10
2019-04-06T05:31:27.543Z,67.20
2019-04-06T05:33:57.338Z,67.30
2019-04-06T05:36:27.356Z,67.40
2019-04-06T05:39:00.073Z,67.50
2019-04-06T05:41:29.928Z,67.70
2019-04-06T05:43:59.779Z,67.70
2019-04-06T05:46:56.220Z,67.70
2019-04-06T05:49:24.395Z,67.80
2019-04-06T05:51:54.243Z,67.80
2019-04-06T05:54:27.626Z,67.80
2019-04-06T05:56:57.463Z,67.80
2019-04-06T05:59:27.424Z,67.80
2019-04-06T06:01:57.324Z,67.80
2019-04-06T06:04:27.137Z,67.70
2019-04-06T06:06:58.234Z,67.80
2019-04-06T06:09:37.779Z,67.80
2019-04-06T06:12:11.955Z,67.90
2019-04-06T06:14:41.937Z,68.70
2019-04-06T06:17:16.095Z,67.80
2019-04-06T06:19:45.839Z,67.80
2019-04-06T06:22:15.896Z,67.80
2019-04-06T06:24:51.522Z,67.90
2019-04-06T06:27:27.256Z,67.90
2019-04-06T06:29:59.902Z,67.90
2019-04-06T06:32:32.688Z,68.10
2019-04-06T06:35:02.422Z,68.90
2019-04-06T06:37:32.782Z,68.40
2019-04-06T06:40:02.702Z,68.40
2019-04-06T06:42:33.889Z,68.40
2019-04-06T06:45:04.400Z,68.40
2019-04-06T06:47:34.443Z,68.40
2019-04-06T06:50:06.580Z,68.50
2019-04-06T06:52:37.400Z,69.00
2019-04-06T06:55:07.350Z,68.70
2019-04-06T06:57:40.406Z,68.70
2019-04-06T07:00:10.173Z,68.90
2019-04-06T07:02:40.016Z,69.10
2019-04-06T07:05:13.213Z,69.30
2019-04-06T07:07:47.513Z,69.60
2019-04-06T07:10:25.672Z,69.80
2019-04-06T07:12:55.541Z,69.90
2019-04-06T07:15:25.282Z,71.20
2019-04-06T07:17:55.067Z,70.40
2019-04-06T07:20:26.512Z,70.70
2019-04-06T07:22:56.416Z,70.90
2019-04-06T07:25:39.643Z,71.10
2019-04-06T07:28:09.387Z,71.30
2019-04-06T07:30:39.263Z,72.50
2019-04-06T07:33:09.183Z,71.80
2019-04-06T07:35:57.146Z,71.90
2019-04-06T07:38:27.463Z,71.90
2019-04-06T07:41:00.953Z,72.00
2019-04-06T07:43:36.939Z,72.00
2019-04-06T07:46:06.776Z,72.00
2019-04-06T07:48:37.970Z,71.90
2019-04-06T07:51:07.973Z,71.90
2019-04-06T07:53:39.554Z,71.80
2019-04-06T07:56:10.605Z,71.90
2019-04-06T07:58:49.390Z,72.00
2019-04-06T08:01:16.568Z,72.00
2019-04-06T08:03:56.900Z,72.00
2019-04-06T08:06:37.067Z,71.90
2019-04-06T08:09:10.111Z,72.00
2019-04-06T08:11:41.564Z,72.00
2019-04-06T08:14:14.069Z,72.00
2019-04-06T08:16:43.988Z,72.00
2019-04-06T08:19:19.890Z,72.10
2019-04-06T08:21:55.463Z,72.30
2019-04-06T08:24:32.826Z,71.80
2019-04-06T08:27:16.973Z,71.70
2019-04-06T08:29:49.881Z,71.70
2019-04-06T08:32:19.826Z,71.80
2019-04-06T08:34:51.414Z,72.00
2019-04-06T08:37:21.313Z,72.00
2019-04-06T08:39:52.747Z,72.20
2019-04-06T08:42:22.460Z,72.20
2019-04-06T08:44:53.175Z,72.40
2019-04-06T08:47:25.927Z,72.50
2019-04-06T08:49:57.206Z,72.40
2019-04-06T08:52:26.995Z,72.20
2019-04-06T08:54:57.020Z,72.30
2019-04-06T08:57:26.916Z,73.10
2019-04-06T08:59:56.791Z,72.10
2019-04-06T09:02:28.503Z,72.10
2019-04-06T09:04:59.081Z,72.20
2019-04-06T09:07:32.206Z,72.10
2019-04-06T09:10:02.109Z,72.10
2019-04-06T09:12:31.901Z,72.90
2019-04-06T09:15:01.740Z,72.10
2019-04-06T09:18:09.266Z,72.00
2019-04-06T09:20:47.649Z,72.00
2019-04-06T09:23:15.587Z,72.00
2019-04-06T09:25:45.949Z,71.90
2019-04-06T09:28:37.601Z,71.90
2019-04-06T09:31:11.030Z,72.10
2019-04-06T09:33:41.142Z,72.00
2019-04-06T09:36:14.133Z,72.10
2019-04-06T09:38:44.038Z,72.20
2019-04-06T09:41:19.083Z,72.20
2019-04-06T09:43:49.391Z,72.20
2019-04-06T09:46:23.512Z,72.20
2019-04-06T09:49:02.532Z,72.20
2019-04-06T09:55:21.966Z,71.90
2019-04-06T09:58:09.149Z,71.90
2019-04-06T10:00:41.587Z,71.80
2019-04-06T10:03:33.193Z,71.80
2019-04-06T10:06:08.930Z,71.70
2019-04-06T10:08:49.282Z,71.60
2019-04-06T10:11:36.741Z,71.70
2019-04-06T10:14:14.191Z,71.60
2019-04-06T10:17:00.134Z,71.50
2019-04-06T10:19:34.444Z,71.50
2019-04-06T10:22:22.141Z,71.40
2019-04-06T10:25:02.504Z,71.30
2019-04-06T10:27:45.939Z,71.20
2019-04-06T10:30:23.619Z,71.10
2019-04-06T10:32:54.461Z,71.10
2019-04-06T10:35:25.992Z,70.90
2019-04-06T10:38:00.016Z,70.80
2019-04-06T10:40:46.626Z,71.50
2019-04-06T10:43:32.553Z,70.70
2019-04-06T10:46:22.867Z,70.70
2019-04-06T10:49:00.269Z,70.50
2019-04-06T10:51:40.675Z,70.50
2019-04-06T10:54:14.342Z,70.50
2019-04-06T10:56:48.314Z,70.30
2019-04-06T10:59:36.133Z,70.30
2019-04-06T11:02:13.653Z,70.30
2019-04-06T11:04:45.106Z,70.00
2019-04-06T11:07:39.185Z,69.90
2019-04-06T11:10:27.038Z,69.70
2019-04-06T11:13:14.868Z,69.60
2019-04-06T11:15:53.124Z,69.60
2019-04-06T11:18:26.248Z,69.50
2019-04-06T11:21:15.640Z,69.50
2019-04-06T11:24:06.985Z,69.50
2019-04-06T11:26:42.231Z,69.30
2019-04-06T11:29:19.268Z,69.30
2019-04-06T11:31:53.378Z,69.30
2019-04-06T11:34:26.990Z,69.20
2019-04-06T11:37:28.827Z,69.20
2019-04-06T11:40:20.885Z,69.10
2019-04-06T11:43:04.483Z,69.00
2019-04-06T11:45:52.328Z,68.90
2019-04-06T11:48:47.567Z,68.70
2019-04-06T11:51:47.662Z,68.60
2019-04-06T11:54:28.337Z,68.60
2019-04-06T11:57:08.795Z,68.60
2019-04-06T11:59:44.096Z,68.50
2019-04-06T12:02:31.741Z,68.30
2019-04-06T12:05:08.983Z,68.30
2019-04-06T12:07:57.919Z,68.10
2019-04-06T12:10:39.916Z,68.10
2019-04-06T12:13:17.361Z,68.10
2019-04-06T12:16:03.983Z,68.00
2019-04-06T12:18:41.663Z,68.00
2019-04-06T12:21:13.137Z,68.00
2019-04-06T12:23:47.353Z,68.00
2019-04-06T12:26:35.398Z,68.00
2019-04-06T12:29:06.762Z,68.00
2019-04-06T12:31:41.259Z,67.90
2019-04-06T12:34:31.468Z,68.00
2019-04-06T12:37:06.418Z,67.80
2019-04-06T12:39:52.232Z,67.70
2019-04-06T12:42:28.772Z,67.60
2019-04-06T12:45:01.333Z,67.70
2019-04-06T12:47:33.945Z,67.60
2019-04-06T12:50:09.598Z,67.60
2019-04-06T12:52:55.929Z,67.50
2019-04-06T12:55:33.742Z,67.40
2019-04-06T12:58:23.213Z,67.50
2019-04-06T13:00:57.198Z,67.40
2019-04-06T13:03:44.956Z,67.30
2019-04-06T13:06:33.034Z,67.40
2019-04-06T13:09:19.470Z,67.30
2019-04-06T13:11:50.836Z,67.10
2019-04-06T13:14:30.880Z,67.00
2019-04-06T13:17:02.323Z,66.90
2019-04-06T13:19:49.953Z,66.90
2019-04-06T13:22:34.287Z,67.00
2019-04-06T13:25:12.855Z,66.70
2019-04-06T13:27:44.412Z,66.60
2019-04-06T13:30:18.696Z,66.50
2019-04-06T13:32:52.774Z,66.50
2019-04-06T13:35:24.282Z,66.50
2019-04-06T13:38:01.526Z,66.50
2019-04-06T13:40:49.127Z,66.40
2019-04-06T13:43:20.945Z,66.30
2019-04-06T13:46:09.623Z,66.10
2019-04-06T13:48:53.500Z,66.00
2019-04-06T13:51:39.741Z,65.90
2019-04-06T13:54:29.331Z,65.80
2019-04-06T13:57:19.012Z,65.70
2019-04-06T14:00:08.759Z,65.60
2019-04-06T14:02:40.195Z,65.50
2019-04-06T14:05:23.814Z,65.30
2019-04-06T14:08:11.239Z,65.30
2019-04-06T14:10:57.679Z,65.20
2019-04-06T14:13:29.054Z,65.00
2019-04-06T14:16:18.977Z,64.90
2019-04-06T14:18:56.474Z,64.70
2019-04-06T14:21:33.689Z,64.50
2019-04-06T14:24:20.929Z,64.40
2019-04-06T14:27:05.046Z,64.20
2019-04-06T14:29:36.486Z,64.10
2019-04-06T14:32:13.757Z,63.80
2019-04-06T14:34:54.119Z,63.60
2019-04-06T14:37:31.124Z,63.20
2019-04-06T14:40:18.829Z,62.90
2019-04-06T14:43:05.081Z,62.70
2019-04-06T14:45:43.755Z,62.50
2019-04-06T14:48:34.574Z,62.40
2019-04-06T14:51:09.466Z,62.40
2019-04-06T14:54:04.854Z,62.30
2019-04-06T14:56:51.897Z,62.40
2019-04-06T14:59:28.976Z,62.50
2019-04-06T15:02:06.083Z,62.50
2019-04-06T15:04:43.515Z,62.50
2019-04-06T15:07:22.617Z,62.50
2019-04-06T15:09:56.916Z,62.60
2019-04-06T15:12:28.264Z,61.70
2019-04-06T15:15:16.042Z,62.40
2019-04-06T15:17:54.796Z,62.20
2019-04-06T15:20:26.148Z,62.10
2019-04-06T15:23:14.122Z,62.00
2019-04-06T15:25:59.095Z,62.20
2019-04-06T15:28:43.263Z,61.80
2019-04-06T15:31:23.982Z,62.80
2019-04-06T15:33:58.152Z,62.10
2019-04-06T15:37:08.837Z,62.10
2019-04-06T15:39:55.134Z,62.00
2019-04-06T15:42:35.702Z,61.70
2019-04-06T15:45:15.441Z,61.70
2019-04-06T15:47:49.327Z,61.60
2019-04-06T15:50:26.557Z,61.40
2019-04-06T15:53:18.439Z,61.30
2019-04-06T15:56:00.267Z,61.30
2019-04-06T15:58:40.438Z,61.00
2019-04-06T16:01:28.520Z,60.90
2019-04-06T16:04:05.526Z,60.90
2019-04-06T16:06:46.698Z,60.30
2019-04-06T16:09:46.392Z,60.20
2019-04-06T16:12:27.463Z,60.10
2019-04-06T16:15:15.850Z,60.00
2019-04-06T16:18:00.035Z,59.80
2019-04-06T16:20:34.594Z,59.40
2019-04-06T16:23:06.263Z,59.30
2019-04-06T16:25:43.998Z,59.20
2019-04-06T16:28:18.278Z,59.10
2019-04-06T16:31:10.277Z,59.00
2019-04-06T16:33:51.891Z,58.90
2019-04-06T16:36:29.361Z,58.70
2019-04-06T16:39:01.909Z,58.80
2019-04-06T16:41:46.702Z,58.20
2019-04-06T16:44:32.858Z,58.10
2019-04-06T16:47:04.245Z,57.90
2019-04-06T16:49:44.423Z,57.80
2019-04-06T16:52:28.124Z,57.70
2019-04-06T16:55:17.744Z,57.70
2019-04-06T16:57:49.234Z,57.80
2019-04-06T17:00:23.974Z,58.10
2019-04-06T17:02:58.012Z,58.20
2019-04-06T17:05:40.694Z,58.30
2019-04-06T17:08:12.920Z,58.20
2019-04-06T17:10:54.057Z,58.10
2019-04-06T17:13:41.824Z,57.90
2019-04-06T17:16:21.525Z,57.90
2019-04-06T17:19:09.397Z,57.90
2019-04-06T17:21:47.686Z,57.60
2019-04-06T17:24:42.089Z,57.40
2019-04-06T17:27:17.822Z,57.30
2019-04-06T17:29:52.028Z,57.40
2019-04-06T17:32:36.029Z,57.40
2019-04-06T17:35:03.919Z,57.50
2019-04-06T17:37:54.619Z,57.60
2019-04-06T17:40:38.450Z,57.50
2019-04-06T17:43:11.830Z,57.60
2019-04-06T17:46:01.303Z,57.60
2019-04-06T17:48:50.968Z,57.80
2019-04-06T17:51:41.381Z,57.70
2019-04-06T17:54:28.138Z,57.80
2019-04-06T17:57:17.863Z,57.90
2019-04-06T18:00:05.494Z,58.00
2019-04-06T18:02:48.745Z,58.00
2019-04-06T18:05:21.699Z,58.10
2019-04-06T18:07:53.167Z,58.10
2019-04-06T18:10:24.636Z,58.20
2019-04-06T18:12:58.648Z,58.20
2019-04-06T18:15:28.604Z,58.30
2019-04-06T18:17:58.764Z,58.20
2019-04-06T18:20:28.809Z,58.20
2019-04-06T18:22:59.653Z,58.30
2019-04-06T18:25:32.952Z,58.40
2019-04-06T18:28:07.103Z,58.50
2019-04-06T18:33:34.924Z,58.70
2019-04-06T18:36:05.692Z,58.70
2019-04-06T18:41:40.845Z,58.90
2019-04-06T18:44:16.706Z,59.00
2019-04-06T18:47:00.845Z,59.10
2019-04-06T18:49:43.350Z,59.10
2019-04-06T18:55:08.683Z,59.50
2019-04-06T18:57:38.191Z,59.90
2019-04-06T19:00:15.226Z,60.30
2019-04-06T19:02:47.891Z,60.60
2019-04-06T19:05:19.371Z,61.20
2019-04-06T19:07:59.727Z,61.50
2019-04-06T19:10:37.101Z,62.40
2019-04-06T19:13:24.888Z,62.00
2019-04-06T19:15:57.337Z,62.30
2019-04-06T19:18:27.142Z,62.60
2019-04-06T19:20:56.927Z,62.90
2019-04-06T19:23:26.737Z,63.00
2019-04-06T19:26:00.197Z,63.20
2019-04-06T19:28:30.050Z,63.30
2019-04-06T19:31:00.278Z,63.50
2019-04-06T19:33:31.544Z,63.70
2019-04-06T19:36:01.480Z,63.80
2019-04-06T19:38:31.408Z,63.90
2019-04-06T19:41:01.206Z,64.00
2019-04-06T19:43:31.035Z,64.10
2019-04-06T19:46:00.943Z,64.20
2019-04-06T19:48:31.241Z,64.40
2019-04-06T19:51:01.055Z,64.50
2019-04-06T19:53:31.761Z,64.60
2019-04-06T19:56:07.723Z,64.70
2019-04-06T19:58:38.000Z,64.90
2019-04-06T20:01:08.051Z,65.00
2019-04-06T20:03:39.280Z,65.10
2019-04-06T20:06:10.309Z,65.10
2019-04-06T20:08:41.092Z,65.10
2019-04-06T20:11:12.744Z,65.20
2019-04-06T20:13:42.602Z,65.30
2019-04-06T20:16:12.411Z,65.30
2019-04-06T20:18:44.208Z,65.40
2019-04-06T20:21:14.257Z,65.60
2019-04-06T20:23:44.680Z,65.70
2019-04-06T20:26:18.486Z,65.70
2019-04-06T20:28:49.982Z,65.90
2019-04-06T20:31:19.787Z,65.90
2019-04-06T20:33:51.939Z,65.90
2019-04-06T20:36:21.198Z,66.00
2019-04-06T20:38:50.927Z,66.00
2019-04-06T20:41:21.079Z,66.90
2019-04-06T20:43:50.948Z,66.20
2019-04-06T20:46:38.873Z,67.10
2019-04-06T20:49:09.184Z,66.20
2019-04-06T20:51:42.311Z,66.10
2019-04-06T20:54:12.226Z,66.20
2019-04-06T20:56:53.235Z,66.20
2019-04-06T20:59:14.386Z,66.30
2019-04-06T21:01:44.130Z,67.00
2019-04-06T21:04:13.919Z,66.30
2019-04-06T21:06:43.745Z,66.50
2019-04-06T21:09:14.295Z,67.40
2019-04-06T21:11:44.723Z,66.50
2019-04-06T21:14:14.640Z,66.50
2019-04-06T21:16:45.649Z,66.50
2019-04-06T21:19:15.874Z,66.50
2019-04-06T21:21:45.789Z,66.70
2019-04-06T21:24:15.834Z,66.80
2019-04-06T21:26:45.672Z,66.80
2019-04-06T21:29:17.053Z,66.90
2019-04-06T21:31:47.279Z,66.90
2019-04-06T21:34:17.068Z,67.00
2019-04-06T21:36:47.297Z,67.00
2019-04-06T21:39:17.673Z,67.00
2019-04-06T21:41:47.539Z,67.00
2019-04-06T21:44:20.426Z,67.10
2019-04-06T21:47:08.671Z,67.10
2019-04-06T21:49:39.959Z,67.10
2019-04-06T21:52:10.194Z,67.10
2019-04-06T21:54:40.055Z,68.10
2019-04-06T21:57:09.791Z,67.20
2019-04-06T21:59:41.732Z,67.20
2019-04-06T22:02:11.607Z,67.20
2019-04-06T22:04:41.916Z,67.20
2019-04-06T22:07:12.963Z,67.30
2019-04-06T22:09:45.821Z,67.20
2019-04-06T22:12:15.587Z,67.30
2019-04-06T22:14:45.443Z,67.20
2019-04-06T22:17:17.458Z,67.30
2019-04-06T22:19:47.394Z,67.20
2019-04-06T22:22:17.947Z,67.20
2019-04-06T22:24:48.703Z,67.20
2019-04-06T22:27:19.546Z,67.20
2019-04-06T22:29:49.874Z,67.20
2019-04-06T22:32:21.217Z,67.20
2019-04-06T22:34:54.097Z,67.20
2019-04-06T22:37:29.098Z,67.20
2019-04-06T22:39:59.283Z,67.10
2019-04-06T22:42:30.673Z,67.20
2019-04-06T22:45:02.639Z,67.30
2019-04-06T22:47:32.539Z,67.40
2019-04-06T22:50:02.716Z,67.60
2019-04-06T22:52:37.239Z,67.60
2019-04-06T22:55:07.361Z,67.60
2019-04-06T22:57:37.395Z,67.60
2019-04-06T23:00:11.238Z,67.50
2019-04-06T23:02:45.135Z,67.60
2019-04-06T23:05:32.208Z,67.60
2019-04-06T23:08:02.093Z,67.60
2019-04-06T23:10:34.624Z,67.60
2019-04-06T23:13:04.407Z,67.60
2019-04-06T23:15:34.381Z,67.60
2019-04-06T23:18:04.660Z,67.70
2019-04-06T23:20:35.189Z,67.80
2019-04-06T23:23:05.103Z,67.80
2019-04-06T23:25:36.124Z,67.80
2019-04-06T23:28:05.850Z,67.70
2019-04-06T23:30:35.720Z,67.80
2019-04-06T23:33:05.415Z,67.80
2019-04-06T23:35:35.740Z,67.70
2019-04-06T23:38:05.820Z,67.70
2019-04-06T23:40:35.624Z,67.70
2019-04-06T23:43:05.468Z,67.90
2019-04-06T23:45:35.596Z,67.60
2019-04-06T23:48:05.946Z,67.70
2019-04-06T23:50:35.913Z,67.70
2019-04-06T23:53:05.835Z,67.80
2019-04-06T23:55:36.563Z,67.90
2019-04-06T23:58:06.434Z,68.00
